createdAt,value
2023-01-26T00:05:09.873Z,-0.60
2023-01-26T00:11:18.007Z,-0.70
2023-01-26T00:17:26.952Z,-0.70
2023-01-26T00:23:32.179Z,-0.80
2023-01-26T00:29:34.061Z,-0.80
2023-01-26T00:35:35.997Z,-0.90
2023-01-26T00:41:56.047Z,-0.90
2023-01-26T00:47:58.058Z,-0.90
2023-01-26T00:53:59.956Z,-0.90
2023-01-26T01:00:02.060Z,-1.10
2023-01-26T01:06:04.272Z,-1.20
2023-01-26T01:12:06.390Z,-1.10
2023-01-26T01:18:08.288Z,-1.20
2023-01-26T01:24:14.154Z,-1.30
2023-01-26T01:30:16.121Z,-1.30
2023-01-26T01:36:18.067Z,-1.40
2023-01-26T01:42:20.420Z,-1.40
2023-01-26T01:48:28.478Z,-1.50
2023-01-26T01:55:02.068Z,-1.50
2023-01-26T02:01:04.114Z,-1.50
2023-01-26T02:07:06.212Z,-1.60
2023-01-26T02:13:08.672Z,-1.60
2023-01-26T02:19:26.375Z,-1.70
2023-01-26T02:25:57.219Z,-1.70
2023-01-26T02:31:59.152Z,-1.70
2023-01-26T02:38:01.163Z,-1.70
2023-01-26T02:44:07.281Z,-1.60
2023-01-26T02:50:10.859Z,-1.50
2023-01-26T02:56:12.986Z,-1.40
2023-01-26T03:02:15.186Z,-1.50
2023-01-26T03:08:17.413Z,-1.50
2023-01-26T03:14:19.732Z,-1.60
2023-01-26T03:20:39.898Z,-1.70
2023-01-26T03:27:00.320Z,-1.70
2023-01-26T03:33:02.197Z,-1.70
2023-01-26T03:39:05.535Z,-1.60
2023-01-26T03:45:26.896Z,-1.50
2023-01-26T03:51:47.045Z,-1.60
2023-01-26T03:57:49.332Z,-1.60
2023-01-26T04:04:11.138Z,-1.70
2023-01-26T04:10:13.212Z,-1.70
2023-01-26T04:16:34.209Z,-1.60
2023-01-26T04:22:45.150Z,-1.60
2023-01-26T04:28:47.083Z,-1.60
2023-01-26T04:34:48.986Z,-1.50
2023-01-26T04:40:54.916Z,-1.40
2023-01-26T04:46:56.790Z,-1.50
2023-01-26T04:52:58.706Z,-1.40
2023-01-26T04:59:04.425Z,-1.40
2023-01-26T05:05:06.895Z,-1.40
2023-01-26T05:11:09.002Z,-1.40
2023-01-26T05:17:10.962Z,-1.40
2023-01-26T05:23:13.064Z,-1.30
2023-01-26T05:29:15.055Z,-1.20
2023-01-26T05:35:17.208Z,-1.20
2023-01-26T05:41:19.086Z,-1.10
2023-01-26T05:47:21.091Z,-1.10
2023-01-26T05:53:23.002Z,-1.00
2023-01-26T05:59:24.873Z,-0.90
2023-01-26T06:05:26.803Z,-0.90
2023-01-26T06:11:28.782Z,-0.90
2023-01-26T06:17:30.717Z,-0.80
2023-01-26T06:23:32.634Z,-0.90
2023-01-26T06:29:34.584Z,-0.90
2023-01-26T06:35:36.538Z,-0.90
2023-01-26T06:41:39.565Z,-0.90
2023-01-26T06:47:50.020Z,-0.90
2023-01-26T06:53:59.098Z,-0.90
2023-01-26T07:00:01.016Z,-1.10
2023-01-26T07:06:02.962Z,-1.00
2023-01-26T07:12:04.953Z,-1.00
2023-01-26T07:18:06.972Z,-1.00
2023-01-26T07:24:10.089Z,-0.90
2023-01-26T07:30:16.084Z,-1.00
2023-01-26T07:36:17.967Z,-1.00
2023-01-26T07:42:19.887Z,-0.90
2023-01-26T07:48:24.365Z,-0.90
2023-01-26T07:54:26.344Z,-0.80
2023-01-26T08:00:28.234Z,-0.80
2023-01-26T08:06:30.122Z,-0.70
2023-01-26T08:12:38.064Z,-0.50
2023-01-26T08:18:43.284Z,-0.40
2023-01-26T08:24:45.183Z,-0.40
2023-01-26T08:30:47.104Z,-0.30
2023-01-26T08:36:49.491Z,-0.30
2023-01-26T08:42:52.618Z,-0.20
2023-01-26T08:48:54.518Z,0.00
2023-01-26T08:54:56.407Z,0.20
2023-01-26T09:00:58.453Z,0.30
2023-01-26T09:07:00.398Z,0.30
2023-01-26T09:13:02.470Z,0.50
2023-01-26T09:19:05.157Z,0.60
2023-01-26T09:25:07.684Z,0.60
2023-01-26T09:31:11.842Z,0.60
2023-01-26T09:37:14.894Z,0.70
2023-01-26T09:43:47.910Z,0.80
2023-01-26T09:50:25.660Z,0.80
2023-01-26T09:56:32.531Z,0.80
2023-01-26T10:03:11.081Z,0.60
2023-01-26T10:09:33.262Z,0.50
2023-01-26T10:15:41.079Z,0.60
2023-01-26T10:21:47.752Z,0.60
2023-01-26T10:27:49.717Z,0.60
2023-01-26T10:34:10.710Z,0.70
2023-01-26T10:40:13.397Z,0.50
2023-01-26T10:46:36.193Z,0.50
2023-01-26T10:52:38.136Z,0.40
2023-01-26T10:58:57.402Z,0.20
2023-01-26T11:05:09.762Z,0.20
2023-01-26T11:11:32.084Z,0.30
2023-01-26T11:17:45.725Z,0.60
2023-01-26T11:24:13.962Z,0.50
2023-01-26T11:31:02.197Z,0.60
2023-01-26T11:37:41.491Z,0.80
2023-01-26T11:44:08.044Z,0.90
2023-01-26T11:50:36.797Z,1.00
2023-01-26T11:56:52.458Z,1.10
2023-01-26T12:03:04.662Z,1.30
2023-01-26T12:09:22.860Z,1.50
2023-01-26T12:15:37.043Z,1.60
2023-01-26T12:21:44.067Z,1.60
2023-01-26T12:28:20.782Z,1.50
2023-01-26T12:34:33.640Z,1.50
2023-01-26T12:41:14.201Z,1.40
2023-01-26T12:47:36.184Z,1.40
2023-01-26T12:54:36.940Z,1.40
2023-01-26T13:00:39.873Z,1.50
2023-01-26T13:06:42.239Z,1.50
2023-01-26T13:12:53.489Z,1.20
2023-01-26T13:18:57.641Z,1.30
2023-01-26T13:25:16.422Z,1.30
2023-01-26T13:31:34.572Z,1.20
2023-01-26T13:38:29.901Z,1.30
2023-01-26T13:44:45.465Z,1.40
2023-01-26T13:50:51.733Z,1.50
2023-01-26T13:57:06.919Z,1.50
2023-01-26T14:03:22.868Z,1.50
2023-01-26T14:09:32.625Z,1.60
2023-01-26T14:15:35.205Z,1.50
2023-01-26T14:22:01.034Z,1.50
2023-01-26T14:28:03.436Z,1.50
2023-01-26T14:34:10.668Z,1.50
2023-01-26T14:40:19.796Z,1.40
2023-01-26T14:46:30.847Z,1.20
2023-01-26T14:52:40.320Z,1.10
2023-01-26T14:58:42.543Z,1.10
2023-01-26T15:04:58.906Z,1.00
2023-01-26T15:11:21.971Z,1.10
2023-01-26T15:17:38.445Z,1.00
2023-01-26T15:23:51.941Z,1.10
2023-01-26T15:29:59.878Z,1.20
2023-01-26T15:36:02.150Z,1.20
2023-01-26T15:42:15.318Z,1.00
2023-01-26T15:48:17.499Z,1.10
2023-01-26T15:54:19.409Z,1.00
2023-01-26T16:00:22.481Z,1.00
2023-01-26T16:06:31.367Z,1.00
2023-01-26T16:12:33.373Z,1.20
2023-01-26T16:18:35.329Z,1.20
2023-01-26T16:24:38.416Z,1.20
2023-01-26T16:30:42.020Z,1.30
2023-01-26T16:36:43.957Z,1.40
2023-01-26T16:42:50.927Z,1.30
2023-01-26T16:48:53.293Z,1.30
2023-01-26T16:54:55.241Z,1.30
2023-01-26T17:00:57.600Z,1.40
2023-01-26T17:06:59.518Z,1.40
2023-01-26T17:13:01.762Z,1.40
2023-01-26T17:19:03.735Z,1.30
2023-01-26T17:25:07.259Z,1.30
2023-01-26T17:31:17.564Z,1.30
2023-01-26T17:37:21.509Z,1.40
2023-01-26T17:43:23.846Z,1.50
2023-01-26T17:49:25.802Z,1.40
2023-01-26T17:55:27.700Z,1.40
2023-01-26T18:01:29.812Z,1.50
2023-01-26T18:07:31.730Z,1.40
2023-01-26T18:13:34.284Z,1.50
2023-01-26T18:19:36.170Z,1.30
2023-01-26T18:25:38.178Z,1.30
2023-01-26T18:31:40.926Z,1.30
2023-01-26T18:37:42.925Z,1.40
2023-01-26T18:43:46.904Z,1.30
2023-01-26T18:49:48.847Z,1.30
2023-01-26T18:55:55.172Z,1.40
2023-01-26T19:02:00.215Z,1.30
2023-01-26T19:08:10.202Z,1.20
2023-01-26T19:14:12.115Z,1.30
2023-01-26T19:20:14.118Z,1.40
2023-01-26T19:26:19.572Z,1.40
2023-01-26T19:32:21.464Z,1.50
2023-01-26T19:38:23.827Z,1.40
2023-01-26T19:44:25.849Z,1.60
2023-01-26T19:50:27.786Z,1.50
2023-01-26T19:56:33.019Z,1.60
2023-01-26T20:02:35.223Z,1.70
2023-01-26T20:08:37.147Z,1.60
2023-01-26T20:14:39.184Z,1.70
2023-01-26T20:20:41.105Z,1.60
2023-01-26T20:26:44.480Z,1.70
2023-01-26T20:32:46.653Z,1.70
2023-01-26T20:38:49.683Z,1.70
2023-01-26T20:44:51.705Z,1.60
2023-01-26T20:50:53.602Z,1.60
2023-01-26T20:56:55.501Z,1.60
2023-01-26T21:02:57.380Z,1.60
2023-01-26T21:09:00.982Z,1.60
2023-01-26T21:15:06.998Z,1.50
2023-01-26T21:21:12.791Z,1.40
2023-01-26T21:27:15.092Z,1.40
2023-01-26T21:33:16.991Z,1.40
2023-01-26T21:39:21.119Z,1.40
2023-01-26T21:45:42.643Z,1.40
2023-01-26T21:52:03.630Z,1.60
2023-01-26T21:58:23.972Z,1.50
2023-01-26T22:04:30.004Z,1.50
2023-01-26T22:10:32.032Z,1.60
2023-01-26T22:16:34.100Z,1.70
2023-01-26T22:22:36.006Z,1.70
2023-01-26T22:28:37.925Z,1.60
2023-01-26T22:34:40.315Z,1.70
2023-01-26T22:40:42.205Z,1.80
2023-01-26T22:46:44.149Z,1.70
2023-01-26T22:52:46.012Z,1.80
2023-01-26T22:58:59.492Z,1.90
2023-01-26T23:05:02.055Z,1.80
2023-01-26T23:11:13.958Z,1.80
2023-01-26T23:17:15.863Z,1.70
2023-01-26T23:23:19.197Z,1.80
2023-01-26T23:29:21.091Z,1.70
2023-01-26T23:35:25.524Z,1.80
2023-01-26T23:41:28.300Z,1.70
2023-01-26T23:47:30.803Z,1.70
2023-01-26T23:53:33.225Z,1.60
2023-01-26T23:59:35.149Z,1.80
